Ionia, Iowa
Current Conditions -  °F | °C
As of 5:55 PM on Sunday 23 Nov 2014 (Local Time) from KCCY Reporting Station
Haze Haze  
Wind Chill: 36°   Ceiling: 500
Heat Index: 43°   Visibility: 4mi
Dew Point: 43°   Wind: 14mph
Humidity: 100%   Direction: 330°NNW
Pressure: 29.34"   Gusts: NA
Location:  43.03°N, 92.46°W
Report Text: KCCY 232355Z AUTO 33012KT 4SM BR OVC005 06/06 A2934 RMK AO2 P0001
Loading
Personal Weather Stations






























Interactive Weather Map New forecast layout! Learn more

10-Day Weather Forecast

Advertisements
Track Severe Weather on mobile